sensor_id;sensor_type;location;lat;lon;timestamp;P1;durP1;ratioP1;P2;durP2;ratioP2
5981;SDS011;3018;48.730;9.336;2024-02-23T00:00:13;0.80;;;0.20;;
5981;SDS011;3018;48.730;9.336;2024-02-23T00:02:41;0.20;;;0.20;;
5981;SDS011;3018;48.730;9.336;2024-02-23T00:05:08;0.40;;;0.10;;
5981;SDS011;3018;48.730;9.336;2024-02-23T00:07:34;0.10;;;0.10;;
5981;SDS011;3018;48.730;9.336;2024-02-23T00:10:02;0.38;;;0.38;;
5981;SDS011;3018;48.730;9.336;2024-02-23T00:12:28;0.15;;;0.15;;
5981;SDS011;3018;48.730;9.336;2024-02-23T00:14:54;0.20;;;0.20;;
5981;SDS011;3018;48.730;9.336;2024-02-23T00:17:20;0.28;;;0.20;;
5981;SDS011;3018;48.730;9.336;2024-02-23T00:19:47;0.20;;;0.20;;
5981;SDS011;3018;48.730;9.336;2024-02-23T00:22:14;0.50;;;0.50;;
5981;SDS011;3018;48.730;9.336;2024-02-23T00:24:40;0.30;;;0.30;;
5981;SDS011;3018;48.730;9.336;2024-02-23T00:27:08;0.65;;;0.15;;
5981;SDS011;3018;48.730;9.336;2024-02-23T00:29:34;0.10;;;0.10;;
5981;SDS011;3018;48.730;9.336;2024-02-23T00:32:01;0.30;;;0.20;;
5981;SDS011;3018;48.730;9.336;2024-02-23T00:34:28;0.10;;;0.10;;
5981;SDS011;3018;48.730;9.336;2024-02-23T00:36:55;0.17;;;0.17;;
5981;SDS011;3018;48.730;9.336;2024-02-23T00:39:22;0.30;;;0.20;;
5981;SDS011;3018;48.730;9.336;2024-02-23T00:41:48;0.20;;;0.20;;
5981;SDS011;3018;48.730;9.336;2024-02-23T00:44:15;0.20;;;0.20;;
5981;SDS011;3018;48.730;9.336;2024-02-23T00:46:42;0.20;;;0.20;;
5981;SDS011;3018;48.730;9.336;2024-02-23T00:49:08;0.28;;;0.20;;
5981;SDS011;3018;48.730;9.336;2024-02-23T00:51:34;0.28;;;0.20;;
5981;SDS011;3018;48.730;9.336;2024-02-23T00:54:00;0.20;;;0.20;;
5981;SDS011;3018;48.730;9.336;2024-02-23T00:56:27;0.10;;;0.10;;
5981;SDS011;3018;48.730;9.336;2024-02-23T00:58:53;0.17;;;0.17;;
5981;SDS011;3018;48.730;9.336;2024-02-23T01:01:20;0.60;;;0.28;;
5981;SDS011;3018;48.730;9.336;2024-02-23T01:03:47;0.55;;;0.30;;
5981;SDS011;3018;48.730;9.336;2024-02-23T01:06:13;0.40;;;0.20;;
5981;SDS011;3018;48.730;9.336;2024-02-23T01:08:39;0.20;;;0.20;;
5981;SDS011;3018;48.730;9.336;2024-02-23T01:11:05;0.63;;;0.20;;
5981;SDS011;3018;48.730;9.336;2024-02-23T01:13:32;0.30;;;0.25;;
5981;SDS011;3018;48.730;9.336;2024-02-23T01:15:58;0.50;;;0.20;;
5981;SDS011;3018;48.730;9.336;2024-02-23T01:18:26;1.90;;;0.43;;
5981;SDS011;3018;48.730;9.336;2024-02-23T01:20:52;0.30;;;0.30;;
5981;SDS011;3018;48.730;9.336;2024-02-23T01:23:18;0.40;;;0.40;;
5981;SDS011;3018;48.730;9.336;2024-02-23T01:25:44;1.55;;;0.40;;
5981;SDS011;3018;48.730;9.336;2024-02-23T01:28:11;0.28;;;0.22;;
5981;SDS011;3018;48.730;9.336;2024-02-23T01:30:37;0.32;;;0.25;;
5981;SDS011;3018;48.730;9.336;2024-02-23T01:33:04;0.20;;;0.20;;
5981;SDS011;3018;48.730;9.336;2024-02-23T01:35:32;0.40;;;0.40;;
5981;SDS011;3018;48.730;9.336;2024-02-23T01:37:58;1.67;;;0.30;;
5981;SDS011;3018;48.730;9.336;2024-02-23T01:40:25;2.38;;;0.43;;
5981;SDS011;3018;48.730;9.336;2024-02-23T01:42:59;1.30;;;0.30;;
5981;SDS011;3018;48.730;9.336;2024-02-23T01:45:26;0.68;;;0.22;;
5981;SDS011;3018;48.730;9.336;2024-02-23T01:47:53;0.43;;;0.30;;
5981;SDS011;3018;48.730;9.336;2024-02-23T01:50:19;3.08;;;0.40;;
5981;SDS011;3018;48.730;9.336;2024-02-23T01:52:47;1.48;;;0.43;;
5981;SDS011;3018;48.730;9.336;2024-02-23T01:55:13;0.40;;;0.40;;
5981;SDS011;3018;48.730;9.336;2024-02-23T01:57:40;0.30;;;0.30;;
5981;SDS011;3018;48.730;9.336;2024-02-23T02:00:07;0.93;;;0.30;;
5981;SDS011;3018;48.730;9.336;2024-02-23T02:02:33;2.10;;;0.28;;
5981;SDS011;3018;48.730;9.336;2024-02-23T02:05:01;1.35;;;0.50;;
5981;SDS011;3018;48.730;9.336;2024-02-23T02:07:28;0.55;;;0.30;;
5981;SDS011;3018;48.730;9.336;2024-02-23T02:09:56;2.08;;;0.40;;
5981;SDS011;3018;48.730;9.336;2024-02-23T02:12:28;1.50;;;0.45;;
5981;SDS011;3018;48.730;9.336;2024-02-23T02:14:54;0.63;;;0.45;;
5981;SDS011;3018;48.730;9.336;2024-02-23T02:17:21;2.00;;;0.50;;
5981;SDS011;3018;48.730;9.336;2024-02-23T02:19:47;1.15;;;0.40;;
5981;SDS011;3018;48.730;9.336;2024-02-23T02:22:14;0.95;;;0.40;;
5981;SDS011;3018;48.730;9.336;2024-02-23T02:24:40;1.65;;;0.40;;
5981;SDS011;3018;48.730;9.336;2024-02-23T02:27:10;1.38;;;0.40;;
5981;SDS011;3018;48.730;9.336;2024-02-23T02:29:36;0.98;;;0.20;;
5981;SDS011;3018;48.730;9.336;2024-02-23T02:32:02;1.23;;;0.40;;
5981;SDS011;3018;48.730;9.336;2024-02-23T02:34:28;3.13;;;0.40;;
5981;SDS011;3018;48.730;9.336;2024-02-23T02:36:55;1.95;;;0.50;;
5981;SDS011;3018;48.730;9.336;2024-02-23T02:39:21;1.08;;;0.30;;
5981;SDS011;3018;48.730;9.336;2024-02-23T02:41:47;0.52;;;0.40;;
5981;SDS011;3018;48.730;9.336;2024-02-23T02:44:15;0.30;;;0.30;;
5981;SDS011;3018;48.730;9.336;2024-02-23T02:46:42;0.95;;;0.28;;
5981;SDS011;3018;48.730;9.336;2024-02-23T02:49:08;0.30;;;0.30;;
5981;SDS011;3018;48.730;9.336;2024-02-23T02:51:34;0.85;;;0.32;;
5981;SDS011;3018;48.730;9.336;2024-02-23T02:54:01;1.50;;;0.40;;
5981;SDS011;3018;48.730;9.336;2024-02-23T02:56:27;2.47;;;0.60;;
5981;SDS011;3018;48.730;9.336;2024-02-23T02:58:54;0.40;;;0.38;;
5981;SDS011;3018;48.730;9.336;2024-02-23T03:01:21;0.45;;;0.30;;
5981;SDS011;3018;48.730;9.336;2024-02-23T03:03:47;0.30;;;0.30;;
5981;SDS011;3018;48.730;9.336;2024-02-23T03:06:14;0.70;;;0.40;;
5981;SDS011;3018;48.730;9.336;2024-02-23T03:08:41;0.68;;;0.45;;
5981;SDS011;3018;48.730;9.336;2024-02-23T03:11:07;0.20;;;0.20;;
5981;SDS011;3018;48.730;9.336;2024-02-23T03:13:33;1.65;;;0.60;;
5981;SDS011;3018;48.730;9.336;2024-02-23T03:15:59;0.30;;;0.30;;
5981;SDS011;3018;48.730;9.336;2024-02-23T03:18:27;0.47;;;0.47;;
5981;SDS011;3018;48.730;9.336;2024-02-23T03:20:53;0.75;;;0.47;;
5981;SDS011;3018;48.730;9.336;2024-02-23T03:23:20;0.63;;;0.52;;
5981;SDS011;3018;48.730;9.336;2024-02-23T03:25:46;0.50;;;0.20;;
5981;SDS011;3018;48.730;9.336;2024-02-23T03:28:12;0.77;;;0.35;;
5981;SDS011;3018;48.730;9.336;2024-02-23T03:30:40;1.25;;;0.30;;
5981;SDS011;3018;48.730;9.336;2024-02-23T03:33:06;0.45;;;0.45;;
5981;SDS011;3018;48.730;9.336;2024-02-23T03:35:33;0.32;;;0.20;;
5981;SDS011;3018;48.730;9.336;2024-02-23T03:38:00;0.82;;;0.32;;
5981;SDS011;3018;48.730;9.336;2024-02-23T03:40:38;1.15;;;0.50;;
5981;SDS011;3018;48.730;9.336;2024-02-23T03:43:04;1.90;;;0.30;;
5981;SDS011;3018;48.730;9.336;2024-02-23T03:45:31;0.70;;;0.30;;
5981;SDS011;3018;48.730;9.336;2024-02-23T03:47:58;0.30;;;0.30;;
5981;SDS011;3018;48.730;9.336;2024-02-23T03:50:24;0.50;;;0.38;;
5981;SDS011;3018;48.730;9.336;2024-02-23T03:52:52;1.35;;;0.40;;
5981;SDS011;3018;48.730;9.336;2024-02-23T03:55:18;0.57;;;0.40;;
5981;SDS011;3018;48.730;9.336;2024-02-23T03:57:44;0.30;;;0.30;;
5981;SDS011;3018;48.730;9.336;2024-02-23T04:00:11;0.98;;;0.40;;
5981;SDS011;3018;48.730;9.336;2024-02-23T04:02:38;0.47;;;0.30;;
5981;SDS011;3018;48.730;9.336;2024-02-23T04:05:05;1.02;;;0.30;;
5981;SDS011;3018;48.730;9.336;2024-02-23T04:07:31;0.85;;;0.30;;
5981;SDS011;3018;48.730;9.336;2024-02-23T04:09:59;0.65;;;0.38;;
5981;SDS011;3018;48.730;9.336;2024-02-23T04:12:25;1.00;;;0.60;;
5981;SDS011;3018;48.730;9.336;2024-02-23T04:14:51;0.38;;;0.38;;
5981;SDS011;3018;48.730;9.336;2024-02-23T04:17:17;1.55;;;0.40;;
5981;SDS011;3018;48.730;9.336;2024-02-23T04:19:44;0.75;;;0.28;;
5981;SDS011;3018;48.730;9.336;2024-02-23T04:22:19;1.42;;;0.30;;
5981;SDS011;3018;48.730;9.336;2024-02-23T04:24:45;0.75;;;0.30;;
5981;SDS011;3018;48.730;9.336;2024-02-23T04:27:13;1.20;;;0.40;;
5981;SDS011;3018;48.730;9.336;2024-02-23T04:29:39;0.63;;;0.20;;
5981;SDS011;3018;48.730;9.336;2024-02-23T04:32:06;0.25;;;0.25;;
5981;SDS011;3018;48.730;9.336;2024-02-23T04:34:32;0.80;;;0.40;;
5981;SDS011;3018;48.730;9.336;2024-02-23T04:36:58;0.65;;;0.30;;
5981;SDS011;3018;48.730;9.336;2024-02-23T04:39:24;0.52;;;0.40;;
5981;SDS011;3018;48.730;9.336;2024-02-23T04:41:51;0.55;;;0.30;;
5981;SDS011;3018;48.730;9.336;2024-02-23T04:44:27;2.20;;;0.40;;
5981;SDS011;3018;48.730;9.336;2024-02-23T04:46:54;1.58;;;0.50;;
5981;SDS011;3018;48.730;9.336;2024-02-23T04:49:20;1.95;;;0.32;;
5981;SDS011;3018;48.730;9.336;2024-02-23T04:51:46;3.50;;;0.45;;
5981;SDS011;3018;48.730;9.336;2024-02-23T04:54:12;0.30;;;0.30;;
5981;SDS011;3018;48.730;9.336;2024-02-23T04:56:38;0.45;;;0.25;;
5981;SDS011;3018;48.730;9.336;2024-02-23T04:59:05;0.88;;;0.43;;
5981;SDS011;3018;48.730;9.336;2024-02-23T05:01:35;0.55;;;0.55;;
5981;SDS011;3018;48.730;9.336;2024-02-23T05:04:02;0.45;;;0.40;;
5981;SDS011;3018;48.730;9.336;2024-02-23T05:06:29;0.50;;;0.50;;
5981;SDS011;3018;48.730;9.336;2024-02-23T05:08:55;0.80;;;0.40;;
5981;SDS011;3018;48.730;9.336;2024-02-23T05:11:22;0.50;;;0.50;;
5981;SDS011;3018;48.730;9.336;2024-02-23T05:13:48;1.20;;;0.50;;
5981;SDS011;3018;48.730;9.336;2024-02-23T05:16:14;0.20;;;0.20;;
5981;SDS011;3018;48.730;9.336;2024-02-23T05:18:42;1.38;;;0.50;;
5981;SDS011;3018;48.730;9.336;2024-02-23T05:21:08;0.32;;;0.32;;
5981;SDS011;3018;48.730;9.336;2024-02-23T05:23:34;0.30;;;0.30;;
5981;SDS011;3018;48.730;9.336;2024-02-23T05:26:01;0.80;;;0.50;;
5981;SDS011;3018;48.730;9.336;2024-02-23T05:28:27;1.00;;;0.68;;
5981;SDS011;3018;48.730;9.336;2024-02-23T05:30:53;0.68;;;0.68;;
5981;SDS011;3018;48.730;9.336;2024-02-23T05:33:20;0.85;;;0.85;;
5981;SDS011;3018;48.730;9.336;2024-02-23T05:35:47;1.00;;;0.88;;
5981;SDS011;3018;48.730;9.336;2024-02-23T05:38:14;1.10;;;0.70;;
5981;SDS011;3018;48.730;9.336;2024-02-23T05:40:40;0.63;;;0.63;;
5981;SDS011;3018;48.730;9.336;2024-02-23T05:43:07;0.73;;;0.73;;
5981;SDS011;3018;48.730;9.336;2024-02-23T05:45:33;2.05;;;0.60;;
5981;SDS011;3018;48.730;9.336;2024-02-23T05:47:59;0.85;;;0.50;;
5981;SDS011;3018;48.730;9.336;2024-02-23T05:50:26;3.53;;;0.70;;
5981;SDS011;3018;48.730;9.336;2024-02-23T05:52:53;0.57;;;0.57;;
5981;SDS011;3018;48.730;9.336;2024-02-23T05:55:20;0.47;;;0.47;;
5981;SDS011;3018;48.730;9.336;2024-02-23T05:57:46;0.77;;;0.77;;
5981;SDS011;3018;48.730;9.336;2024-02-23T06:00:12;1.60;;;1.08;;
5981;SDS011;3018;48.730;9.336;2024-02-23T06:02:39;0.95;;;0.95;;
5981;SDS011;3018;48.730;9.336;2024-02-23T06:05:06;0.80;;;0.80;;
5981;SDS011;3018;48.730;9.336;2024-02-23T06:07:33;1.25;;;0.98;;
5981;SDS011;3018;48.730;9.336;2024-02-23T06:10:01;2.28;;;1.08;;
5981;SDS011;3018;48.730;9.336;2024-02-23T06:12:27;1.00;;;1.00;;
5981;SDS011;3018;48.730;9.336;2024-02-23T06:14:53;1.10;;;1.00;;
5981;SDS011;3018;48.730;9.336;2024-02-23T06:17:20;0.80;;;0.80;;
5981;SDS011;3018;48.730;9.336;2024-02-23T06:19:47;0.85;;;0.70;;
5981;SDS011;3018;48.730;9.336;2024-02-23T06:22:13;2.30;;;0.88;;
5981;SDS011;3018;48.730;9.336;2024-02-23T06:24:44;0.75;;;0.75;;
5981;SDS011;3018;48.730;9.336;2024-02-23T06:27:26;1.88;;;0.73;;
5981;SDS011;3018;48.730;9.336;2024-02-23T06:29:52;0.60;;;0.60;;
5981;SDS011;3018;48.730;9.336;2024-02-23T06:32:19;1.05;;;0.63;;
5981;SDS011;3018;48.730;9.336;2024-02-23T06:34:46;1.23;;;0.80;;
5981;SDS011;3018;48.730;9.336;2024-02-23T06:37:12;0.90;;;0.68;;
5981;SDS011;3018;48.730;9.336;2024-02-23T06:39:38;0.98;;;0.43;;
5981;SDS011;3018;48.730;9.336;2024-02-23T06:42:05;1.88;;;0.68;;
5981;SDS011;3018;48.730;9.336;2024-02-23T06:44:32;2.45;;;0.57;;
5981;SDS011;3018;48.730;9.336;2024-02-23T06:46:59;0.60;;;0.60;;
5981;SDS011;3018;48.730;9.336;2024-02-23T06:49:25;1.95;;;0.77;;
5981;SDS011;3018;48.730;9.336;2024-02-23T06:51:51;0.75;;;0.70;;
5981;SDS011;3018;48.730;9.336;2024-02-23T06:54:17;0.50;;;0.50;;
5981;SDS011;3018;48.730;9.336;2024-02-23T06:56:44;1.42;;;0.80;;
5981;SDS011;3018;48.730;9.336;2024-02-23T06:59:10;0.70;;;0.68;;
5981;SDS011;3018;48.730;9.336;2024-02-23T07:01:48;0.70;;;0.70;;
5981;SDS011;3018;48.730;9.336;2024-02-23T07:04:14;1.05;;;0.70;;
5981;SDS011;3018;48.730;9.336;2024-02-23T07:06:40;1.65;;;1.00;;
5981;SDS011;3018;48.730;9.336;2024-02-23T07:09:07;3.13;;;1.05;;
5981;SDS011;3018;48.730;9.336;2024-02-23T07:11:34;1.73;;;1.42;;
5981;SDS011;3018;48.730;9.336;2024-02-23T07:14:00;1.60;;;1.50;;
5981;SDS011;3018;48.730;9.336;2024-02-23T07:16:26;3.95;;;2.75;;
5981;SDS011;3018;48.730;9.336;2024-02-23T07:18:54;7.22;;;3.13;;
5981;SDS011;3018;48.730;9.336;2024-02-23T07:21:21;7.03;;;3.75;;
5981;SDS011;3018;48.730;9.336;2024-02-23T07:23:48;6.82;;;4.60;;
5981;SDS011;3018;48.730;9.336;2024-02-23T07:26:14;5.28;;;3.85;;
5981;SDS011;3018;48.730;9.336;2024-02-23T07:28:40;4.65;;;3.95;;
5981;SDS011;3018;48.730;9.336;2024-02-23T07:31:07;4.65;;;3.70;;
5981;SDS011;3018;48.730;9.336;2024-02-23T07:33:33;5.72;;;3.05;;
5981;SDS011;3018;48.730;9.336;2024-02-23T07:36:00;4.93;;;2.40;;
5981;SDS011;3018;48.730;9.336;2024-02-23T07:38:27;1.98;;;1.70;;
5981;SDS011;3018;48.730;9.336;2024-02-23T07:40:53;1.45;;;1.08;;
5981;SDS011;3018;48.730;9.336;2024-02-23T07:43:19;2.33;;;1.70;;
5981;SDS011;3018;48.730;9.336;2024-02-23T07:45:45;1.10;;;1.00;;
5981;SDS011;3018;48.730;9.336;2024-02-23T07:48:12;1.77;;;1.67;;
5981;SDS011;3018;48.730;9.336;2024-02-23T07:50:38;7.05;;;1.83;;
5981;SDS011;3018;48.730;9.336;2024-02-23T07:53:05;2.90;;;2.05;;
5981;SDS011;3018;48.730;9.336;2024-02-23T07:55:32;1.77;;;1.67;;
5981;SDS011;3018;48.730;9.336;2024-02-23T07:57:58;3.75;;;1.73;;
5981;SDS011;3018;48.730;9.336;2024-02-23T08:00:26;5.93;;;1.33;;
5981;SDS011;3018;48.730;9.336;2024-02-23T08:02:52;2.17;;;1.10;;
5981;SDS011;3018;48.730;9.336;2024-02-23T08:05:21;1.52;;;0.80;;
5981;SDS011;3018;48.730;9.336;2024-02-23T08:07:47;5.45;;;0.93;;
5981;SDS011;3018;48.730;9.336;2024-02-23T08:10:15;2.15;;;1.13;;
5981;SDS011;3018;48.730;9.336;2024-02-23T08:12:41;1.15;;;0.68;;
5981;SDS011;3018;48.730;9.336;2024-02-23T08:15:08;4.85;;;1.33;;
5981;SDS011;3018;48.730;9.336;2024-02-23T08:17:34;1.40;;;1.00;;
5981;SDS011;3018;48.730;9.336;2024-02-23T08:20:00;1.75;;;1.00;;
5981;SDS011;3018;48.730;9.336;2024-02-23T08:22:27;2.42;;;1.08;;
5981;SDS011;3018;48.730;9.336;2024-02-23T08:24:53;3.35;;;0.80;;
5981;SDS011;3018;48.730;9.336;2024-02-23T08:27:20;1.13;;;0.70;;
5981;SDS011;3018;48.730;9.336;2024-02-23T08:29:47;1.35;;;1.00;;
5981;SDS011;3018;48.730;9.336;2024-02-23T08:32:13;3.75;;;0.80;;
5981;SDS011;3018;48.730;9.336;2024-02-23T08:34:39;0.85;;;0.75;;
5981;SDS011;3018;48.730;9.336;2024-02-23T08:37:05;2.22;;;0.95;;
5981;SDS011;3018;48.730;9.336;2024-02-23T08:39:32;3.10;;;0.77;;
5981;SDS011;3018;48.730;9.336;2024-02-23T08:41:59;1.13;;;0.93;;
5981;SDS011;3018;48.730;9.336;2024-02-23T08:44:26;3.03;;;0.98;;
5981;SDS011;3018;48.730;9.336;2024-02-23T08:46:53;5.15;;;0.95;;
5981;SDS011;3018;48.730;9.336;2024-02-23T08:49:19;2.38;;;0.85;;
5981;SDS011;3018;48.730;9.336;2024-02-23T08:51:45;1.67;;;0.80;;
5981;SDS011;3018;48.730;9.336;2024-02-23T08:54:11;3.42;;;1.10;;
5981;SDS011;3018;48.730;9.336;2024-02-23T08:56:38;3.45;;;0.90;;
5981;SDS011;3018;48.730;9.336;2024-02-23T08:59:07;0.90;;;0.80;;
5981;SDS011;3018;48.730;9.336;2024-02-23T09:01:35;2.85;;;0.73;;
5981;SDS011;3018;48.730;9.336;2024-02-23T09:04:01;2.45;;;1.00;;
5981;SDS011;3018;48.730;9.336;2024-02-23T09:06:27;4.90;;;0.70;;
5981;SDS011;3018;48.730;9.336;2024-02-23T09:08:54;3.25;;;0.90;;
5981;SDS011;3018;48.730;9.336;2024-02-23T09:11:20;2.92;;;0.70;;
5981;SDS011;3018;48.730;9.336;2024-02-23T09:13:46;3.67;;;0.90;;
5981;SDS011;3018;48.730;9.336;2024-02-23T09:16:13;1.00;;;0.90;;
5981;SDS011;3018;48.730;9.336;2024-02-23T09:18:41;3.10;;;0.80;;
5981;SDS011;3018;48.730;9.336;2024-02-23T09:21:07;1.38;;;0.90;;
5981;SDS011;3018;48.730;9.336;2024-02-23T09:23:33;1.65;;;0.70;;
5981;SDS011;3018;48.730;9.336;2024-02-23T09:25:59;5.18;;;1.42;;
5981;SDS011;3018;48.730;9.336;2024-02-23T09:28:26;1.92;;;1.00;;
5981;SDS011;3018;48.730;9.336;2024-02-23T09:30:52;2.30;;;1.20;;
5981;SDS011;3018;48.730;9.336;2024-02-23T09:33:18;2.50;;;1.25;;
5981;SDS011;3018;48.730;9.336;2024-02-23T09:35:46;3.65;;;1.15;;
5981;SDS011;3018;48.730;9.336;2024-02-23T09:38:12;3.45;;;1.40;;
5981;SDS011;3018;48.730;9.336;2024-02-23T09:40:38;4.43;;;0.90;;
5981;SDS011;3018;48.730;9.336;2024-02-23T09:43:05;2.05;;;0.73;;
5981;SDS011;3018;48.730;9.336;2024-02-23T09:45:33;1.10;;;0.75;;
5981;SDS011;3018;48.730;9.336;2024-02-23T09:47:59;2.83;;;0.85;;
5981;SDS011;3018;48.730;9.336;2024-02-23T09:50:26;2.65;;;0.90;;
5981;SDS011;3018;48.730;9.336;2024-02-23T09:52:55;3.10;;;1.38;;
5981;SDS011;3018;48.730;9.336;2024-02-23T09:55:22;8.10;;;1.60;;
5981;SDS011;3018;48.730;9.336;2024-02-23T09:57:48;2.83;;;1.70;;
5981;SDS011;3018;48.730;9.336;2024-02-23T10:00:19;3.28;;;2.00;;
5981;SDS011;3018;48.730;9.336;2024-02-23T10:02:46;6.90;;;1.50;;
5981;SDS011;3018;48.730;9.336;2024-02-23T10:05:14;3.72;;;2.17;;
5981;SDS011;3018;48.730;9.336;2024-02-23T10:07:42;4.07;;;2.00;;
5981;SDS011;3018;48.730;9.336;2024-02-23T10:10:10;4.75;;;1.85;;
5981;SDS011;3018;48.730;9.336;2024-02-23T10:12:37;5.13;;;1.90;;
5981;SDS011;3018;48.730;9.336;2024-02-23T10:15:04;1.45;;;1.15;;
5981;SDS011;3018;48.730;9.336;2024-02-23T10:17:31;7.25;;;1.88;;
5981;SDS011;3018;48.730;9.336;2024-02-23T10:19:57;2.70;;;1.55;;
5981;SDS011;3018;48.730;9.336;2024-02-23T10:22:23;5.05;;;2.13;;
5981;SDS011;3018;48.730;9.336;2024-02-23T10:24:50;5.43;;;2.08;;
5981;SDS011;3018;48.730;9.336;2024-02-23T10:27:17;3.97;;;1.85;;
5981;SDS011;3018;48.730;9.336;2024-02-23T10:29:44;3.28;;;1.73;;
5981;SDS011;3018;48.730;9.336;2024-02-23T10:32:10;2.63;;;1.20;;
5981;SDS011;3018;48.730;9.336;2024-02-23T10:34:40;1.33;;;1.00;;
5981;SDS011;3018;48.730;9.336;2024-02-23T10:37:08;4.97;;;1.20;;
5981;SDS011;3018;48.730;9.336;2024-02-23T10:39:35;7.70;;;1.70;;
5981;SDS011;3018;48.730;9.336;2024-02-23T10:42:02;3.83;;;2.00;;
5981;SDS011;3018;48.730;9.336;2024-02-23T10:44:31;3.30;;;1.73;;
5981;SDS011;3018;48.730;9.336;2024-02-23T10:46:57;3.35;;;1.80;;
5981;SDS011;3018;48.730;9.336;2024-02-23T10:49:24;3.80;;;2.08;;
5981;SDS011;3018;48.730;9.336;2024-02-23T10:51:52;7.90;;;2.95;;
5981;SDS011;3018;48.730;9.336;2024-02-23T10:54:18;4.22;;;1.85;;
5981;SDS011;3018;48.730;9.336;2024-02-23T10:56:46;3.75;;;1.20;;
5981;SDS011;3018;48.730;9.336;2024-02-23T10:59:13;1.63;;;1.30;;
5981;SDS011;3018;48.730;9.336;2024-02-23T11:01:42;2.50;;;1.13;;
5981;SDS011;3018;48.730;9.336;2024-02-23T11:04:09;2.38;;;0.90;;
5981;SDS011;3018;48.730;9.336;2024-02-23T11:06:35;3.92;;;1.02;;
5981;SDS011;3018;48.730;9.336;2024-02-23T11:09:05;3.17;;;0.80;;
5981;SDS011;3018;48.730;9.336;2024-02-23T11:11:31;4.90;;;1.13;;
5981;SDS011;3018;48.730;9.336;2024-02-23T11:13:58;1.48;;;0.80;;
5981;SDS011;3018;48.730;9.336;2024-02-23T11:16:24;2.97;;;0.70;;
5981;SDS011;3018;48.730;9.336;2024-02-23T11:19:03;3.15;;;1.02;;
5981;SDS011;3018;48.730;9.336;2024-02-23T11:21:33;2.42;;;1.00;;
5981;SDS011;3018;48.730;9.336;2024-02-23T11:24:01;5.82;;;1.35;;
5981;SDS011;3018;48.730;9.336;2024-02-23T11:26:28;3.40;;;1.40;;
5981;SDS011;3018;48.730;9.336;2024-02-23T11:28:54;1.67;;;0.73;;
5981;SDS011;3018;48.730;9.336;2024-02-23T11:31:21;3.40;;;1.20;;
5981;SDS011;3018;48.730;9.336;2024-02-23T11:33:48;4.43;;;1.20;;
5981;SDS011;3018;48.730;9.336;2024-02-23T11:36:23;2.38;;;1.00;;
5981;SDS011;3018;48.730;9.336;2024-02-23T11:38:51;2.13;;;0.70;;
5981;SDS011;3018;48.730;9.336;2024-02-23T11:41:18;4.10;;;1.30;;
5981;SDS011;3018;48.730;9.336;2024-02-23T11:43:44;5.80;;;1.20;;
5981;SDS011;3018;48.730;9.336;2024-02-23T11:46:12;1.75;;;0.90;;
5981;SDS011;3018;48.730;9.336;2024-02-23T11:48:38;5.85;;;1.05;;
5981;SDS011;3018;48.730;9.336;2024-02-23T11:51:04;0.82;;;0.73;;
5981;SDS011;3018;48.730;9.336;2024-02-23T11:53:32;1.35;;;0.90;;
5981;SDS011;3018;48.730;9.336;2024-02-23T11:55:58;4.90;;;0.80;;
5981;SDS011;3018;48.730;9.336;2024-02-23T11:58:24;1.30;;;0.85;;
5981;SDS011;3018;48.730;9.336;2024-02-23T12:00:51;3.53;;;0.82;;
5981;SDS011;3018;48.730;9.336;2024-02-23T12:03:17;1.45;;;0.68;;
5981;SDS011;3018;48.730;9.336;2024-02-23T12:05:43;4.45;;;1.00;;
5981;SDS011;3018;48.730;9.336;2024-02-23T12:08:09;5.22;;;1.25;;
5981;SDS011;3018;48.730;9.336;2024-02-23T12:10:37;3.92;;;1.38;;
5981;SDS011;3018;48.730;9.336;2024-02-23T12:13:03;3.65;;;1.20;;
5981;SDS011;3018;48.730;9.336;2024-02-23T12:15:30;1.85;;;0.90;;
5981;SDS011;3018;48.730;9.336;2024-02-23T12:17:57;1.15;;;0.90;;
5981;SDS011;3018;48.730;9.336;2024-02-23T12:20:24;6.00;;;1.23;;
5981;SDS011;3018;48.730;9.336;2024-02-23T12:22:50;3.50;;;0.90;;
5981;SDS011;3018;48.730;9.336;2024-02-23T12:25:17;4.55;;;0.90;;
5981;SDS011;3018;48.730;9.336;2024-02-23T12:27:44;0.80;;;0.80;;
5981;SDS011;3018;48.730;9.336;2024-02-23T12:30:13;3.05;;;0.88;;
5981;SDS011;3018;48.730;9.336;2024-02-23T12:32:39;4.32;;;0.82;;
5981;SDS011;3018;48.730;9.336;2024-02-23T12:35:05;3.03;;;0.70;;
5981;SDS011;3018;48.730;9.336;2024-02-23T12:37:34;2.97;;;0.88;;
5981;SDS011;3018;48.730;9.336;2024-02-23T12:40:00;4.55;;;1.15;;
5981;SDS011;3018;48.730;9.336;2024-02-23T12:42:27;2.10;;;0.95;;
5981;SDS011;3018;48.730;9.336;2024-02-23T12:44:55;4.55;;;1.08;;
5981;SDS011;3018;48.730;9.336;2024-02-23T12:47:21;3.13;;;1.33;;
5981;SDS011;3018;48.730;9.336;2024-02-23T12:49:47;5.22;;;1.27;;
5981;SDS011;3018;48.730;9.336;2024-02-23T12:52:14;3.35;;;0.77;;
5981;SDS011;3018;48.730;9.336;2024-02-23T12:54:40;1.30;;;0.82;;
5981;SDS011;3018;48.730;9.336;2024-02-23T12:57:07;6.40;;;1.10;;
5981;SDS011;3018;48.730;9.336;2024-02-23T12:59:33;3.53;;;1.13;;
5981;SDS011;3018;48.730;9.336;2024-02-23T13:02:01;5.05;;;1.92;;
5981;SDS011;3018;48.730;9.336;2024-02-23T13:04:27;2.83;;;1.05;;
5981;SDS011;3018;48.730;9.336;2024-02-23T13:06:53;4.57;;;0.88;;
5981;SDS011;3018;48.730;9.336;2024-02-23T13:09:20;4.60;;;0.80;;
5981;SDS011;3018;48.730;9.336;2024-02-23T13:11:46;6.13;;;1.20;;
5981;SDS011;3018;48.730;9.336;2024-02-23T13:14:13;3.85;;;1.00;;
5981;SDS011;3018;48.730;9.336;2024-02-23T13:16:40;4.28;;;2.10;;
5981;SDS011;3018;48.730;9.336;2024-02-23T13:19:08;4.00;;;1.30;;
5981;SDS011;3018;48.730;9.336;2024-02-23T13:21:35;5.47;;;1.13;;
5981;SDS011;3018;48.730;9.336;2024-02-23T13:24:01;2.45;;;0.95;;
5981;SDS011;3018;48.730;9.336;2024-02-23T13:26:27;3.83;;;1.15;;
5981;SDS011;3018;48.730;9.336;2024-02-23T13:28:54;3.67;;;1.02;;
5981;SDS011;3018;48.730;9.336;2024-02-23T13:31:20;1.88;;;1.02;;
5981;SDS011;3018;48.730;9.336;2024-02-23T13:33:46;3.67;;;1.20;;
5981;SDS011;3018;48.730;9.336;2024-02-23T13:36:14;4.40;;;1.35;;
5981;SDS011;3018;48.730;9.336;2024-02-23T13:38:40;1.25;;;0.93;;
5981;SDS011;3018;48.730;9.336;2024-02-23T13:41:06;6.00;;;1.10;;
5981;SDS011;3018;48.730;9.336;2024-02-23T13:43:33;1.90;;;0.90;;
5981;SDS011;3018;48.730;9.336;2024-02-23T13:45:59;5.60;;;1.42;;
5981;SDS011;3018;48.730;9.336;2024-02-23T13:48:25;8.48;;;1.15;;
5981;SDS011;3018;48.730;9.336;2024-02-23T13:50:52;4.65;;;1.23;;
5981;SDS011;3018;48.730;9.336;2024-02-23T13:53:19;4.47;;;1.52;;
5981;SDS011;3018;48.730;9.336;2024-02-23T13:55:45;4.20;;;1.38;;
5981;SDS011;3018;48.730;9.336;2024-02-23T13:58:12;4.78;;;1.13;;
5981;SDS011;3018;48.730;9.336;2024-02-23T14:00:37;5.03;;;1.23;;
5981;SDS011;3018;48.730;9.336;2024-02-23T14:03:04;4.88;;;1.33;;
5981;SDS011;3018;48.730;9.336;2024-02-23T14:05:30;8.18;;;1.65;;
5981;SDS011;3018;48.730;9.336;2024-02-23T14:07:56;11.75;;;2.97;;
5981;SDS011;3018;48.730;9.336;2024-02-23T14:10:24;7.55;;;2.42;;
5981;SDS011;3018;48.730;9.336;2024-02-23T14:12:50;3.28;;;1.45;;
5981;SDS011;3018;48.730;9.336;2024-02-23T14:15:16;11.00;;;2.25;;
5981;SDS011;3018;48.730;9.336;2024-02-23T14:17:43;11.02;;;2.25;;
5981;SDS011;3018;48.730;9.336;2024-02-23T14:20:09;7.60;;;2.30;;
5981;SDS011;3018;48.730;9.336;2024-02-23T14:22:36;3.47;;;1.50;;
5981;SDS011;3018;48.730;9.336;2024-02-23T14:25:02;3.92;;;1.85;;
5981;SDS011;3018;48.730;9.336;2024-02-23T14:27:29;7.25;;;2.13;;
5981;SDS011;3018;48.730;9.336;2024-02-23T14:29:56;7.32;;;2.10;;
5981;SDS011;3018;48.730;9.336;2024-02-23T14:32:22;6.55;;;1.42;;
5981;SDS011;3018;48.730;9.336;2024-02-23T14:34:48;6.88;;;1.48;;
5981;SDS011;3018;48.730;9.336;2024-02-23T14:37:14;9.70;;;2.10;;
5981;SDS011;3018;48.730;9.336;2024-02-23T14:39:41;4.00;;;1.10;;
5981;SDS011;3018;48.730;9.336;2024-02-23T14:42:07;3.17;;;1.45;;
5981;SDS011;3018;48.730;9.336;2024-02-23T14:44:35;3.40;;;1.40;;
5981;SDS011;3018;48.730;9.336;2024-02-23T14:47:02;2.92;;;1.38;;
5981;SDS011;3018;48.730;9.336;2024-02-23T14:49:28;2.28;;;1.30;;
5981;SDS011;3018;48.730;9.336;2024-02-23T14:51:54;6.05;;;2.30;;
5981;SDS011;3018;48.730;9.336;2024-02-23T14:54:20;4.35;;;1.40;;
5981;SDS011;3018;48.730;9.336;2024-02-23T14:56:47;6.00;;;1.23;;
5981;SDS011;3018;48.730;9.336;2024-02-23T14:59:13;4.38;;;1.67;;
5981;SDS011;3018;48.730;9.336;2024-02-23T15:01:40;8.23;;;1.60;;
5981;SDS011;3018;48.730;9.336;2024-02-23T15:04:07;5.85;;;1.40;;
5981;SDS011;3018;48.730;9.336;2024-02-23T15:06:33;4.60;;;1.42;;
5981;SDS011;3018;48.730;9.336;2024-02-23T15:09:01;5.85;;;1.65;;
5981;SDS011;3018;48.730;9.336;2024-02-23T15:11:28;6.00;;;1.35;;